Time;durP1;ratioP1;P1;durP2;ratioP2;P2;SDS_P1;SDS_P2;PMS_P1;PMS_P2;Temp;Humidity;BMP_temperature;BMP_pressure;BME280_temperature;BME280_humidity;BME280_pressure;Samples;Min_cycle;Max_cycle;Signal;HPM_P1;HPM_P2
2024/01/28 00:01:57;;;;;;;25.20;10.45;;;;;;;-1.72;71.94;100456.81;4986134;28;20529;-62
2024/01/28 00:04:23;;;;;;;35.05;11.43;;;;;;;-1.53;71.79;100491.34;4970493;28;20050;-62
2024/01/28 00:06:50;;;;;;;30.20;11.35;;;;;;;-1.51;71.93;100499.00;4953777;28;20043;-61
2024/01/28 00:09:15;;;;;;;24.80;10.23;;;;;;;-1.50;71.95;100499.06;5002797;28;20034;-59
2024/01/28 00:11:43;;;;;;;25.65;10.80;;;;;;;-1.58;71.75;100484.38;4976874;28;20042;-61
2024/01/28 00:14:10;;;;;;;26.58;9.80;;;;;;;-1.54;71.67;100492.16;4989209;28;20057;-61
2024/01/28 00:16:36;;;;;;;24.65;10.00;;;;;;;-1.51;71.75;100488.81;5004148;28;20465;-57
2024/01/28 00:19:02;;;;;;;30.00;9.68;;;;;;;-1.49;71.62;100493.16;5006825;28;20131;-58
2024/01/28 00:21:29;;;;;;;19.48;8.85;;;;;;;-1.51;71.44;100489.69;5005652;28;20057;-60
2024/01/28 00:23:56;;;;;;;19.60;8.57;;;;;;;-1.50;71.38;100495.66;4972994;28;20132;-61
2024/01/28 00:26:22;;;;;;;18.27;8.32;;;;;;;-1.72;71.16;100461.91;4972512;28;20390;-60
2024/01/28 00:28:48;;;;;;;22.27;9.32;;;;;;;-1.49;71.19;100495.69;4989176;28;20038;-62
2024/01/28 00:31:14;;;;;;;20.30;8.63;;;;;;;-1.47;71.25;100495.75;4997444;28;20049;-58
2024/01/28 00:33:41;;;;;;;22.92;8.50;;;;;;;-1.48;71.14;100501.66;4994301;28;20048;-58
2024/01/28 00:36:14;;;;;;;23.20;8.95;;;;;;;-1.47;70.84;100505.94;4956813;28;20053;-60
2024/01/28 00:38:39;;;;;;;26.50;10.30;;;;;;;-1.69;71.20;100461.16;5006917;28;20421;-58
2024/01/28 00:41:05;;;;;;;22.60;9.05;;;;;;;-1.66;71.00;100473.97;4989097;28;20046;-61
2024/01/28 00:43:31;;;;;;;21.67;9.45;;;;;;;-1.47;70.75;100504.25;5005308;28;20413;-60
2024/01/28 00:45:57;;;;;;;28.35;10.45;;;;;;;-1.45;71.05;100499.19;5005020;28;20049;-61
2024/01/28 00:48:23;;;;;;;24.90;8.13;;;;;;;-1.44;71.06;100506.00;5006683;28;20046;-58
2024/01/28 00:50:49;;;;;;;24.95;9.45;;;;;;;-1.44;70.82;100501.78;4995398;28;20042;-56
2024/01/28 00:53:17;;;;;;;18.83;7.40;;;;;;;-1.58;70.93;100485.25;4969549;28;20060;-59
2024/01/28 00:55:43;;;;;;;21.48;8.93;;;;;;;-1.65;70.65;100467.19;4953349;28;20125;-58
2024/01/28 00:58:09;;;;;;;23.25;8.88;;;;;;;-1.44;70.71;100509.44;4969490;28;20729;-61
2024/01/28 01:00:35;;;;;;;24.92;10.02;;;;;;;-1.63;70.83;100470.66;4987070;28;20041;-60
2024/01/28 01:03:01;;;;;;;29.60;11.63;;;;;;;-1.42;71.06;100505.25;4984860;28;20552;-57
2024/01/28 01:05:27;;;;;;;22.90;8.55;;;;;;;-1.41;70.80;100511.19;4981800;28;20037;-59
2024/01/28 01:07:53;;;;;;;24.23;9.30;;;;;;;-1.63;70.98;100470.66;4971674;28;20050;-60
2024/01/28 01:10:22;;;;;;;27.95;10.48;;;;;;;-1.43;70.93;100497.53;4983998;28;20110;-58
2024/01/28 01:12:49;;;;;;;24.65;9.18;;;;;;;-1.40;70.88;100500.16;4981917;28;20073;-61
2024/01/28 01:15:15;;;;;;;25.05;9.35;;;;;;;-1.51;70.71;100491.38;4985476;28;20038;-59
2024/01/28 01:17:41;;;;;;;26.58;10.07;;;;;;;-1.41;71.05;100509.50;4953533;28;20466;-58
2024/01/28 01:20:08;;;;;;;22.20;8.50;;;;;;;-1.42;70.81;100514.59;4985504;28;20042;-60
2024/01/28 01:22:34;;;;;;;22.25;10.00;;;;;;;-1.39;70.91;100514.66;4969143;28;20485;-59
2024/01/28 01:25:00;;;;;;;25.58;10.05;;;;;;;-1.50;70.73;100498.19;4987276;28;20125;-59
2024/01/28 01:27:26;;;;;;;26.27;8.98;;;;;;;-1.44;70.98;100504.34;4986740;28;20133;-59
2024/01/28 01:29:52;;;;;;;26.70;8.80;;;;;;;-1.59;71.22;100480.09;4985369;28;20042;-59
2024/01/28 01:32:18;;;;;;;23.30;8.80;;;;;;;-1.41;70.83;100496.75;5002386;28;20045;-62
2024/01/28 01:34:44;;;;;;;24.85;9.93;;;;;;;-1.39;70.68;100505.31;4987441;28;20045;-61
2024/01/28 01:37:10;;;;;;;27.20;9.48;;;;;;;-1.37;70.70;100510.47;4989705;28;20042;-61
2024/01/28 01:39:36;;;;;;;26.23;9.60;;;;;;;-1.37;70.45;100503.69;4989148;28;20506;-61
2024/01/28 01:42:02;;;;;;;27.23;10.02;;;;;;;-1.38;70.53;100508.72;5000618;28;20037;-61
2024/01/28 01:44:28;;;;;;;24.92;10.05;;;;;;;-1.35;70.73;100511.34;5010237;28;20045;-57
2024/01/28 01:46:54;;;;;;;29.55;10.27;;;;;;;-1.34;70.50;100513.09;4976316;28;20048;-61
2024/01/28 01:49:21;;;;;;;26.80;9.82;;;;;;;-1.56;70.41;100483.59;4976221;28;20044;-60
2024/01/28 01:51:47;;;;;;;24.10;9.90;;;;;;;-1.35;70.43;100519.00;5008759;28;20045;-58
2024/01/28 01:54:14;;;;;;;25.10;9.75;;;;;;;-1.36;70.35;100527.50;4992711;28;20041;-60
2024/01/28 01:56:40;;;;;;;29.70;10.50;;;;;;;-1.45;70.62;100501.72;5008670;28;20038;-64
2024/01/28 01:59:06;;;;;;;31.15;10.57;;;;;;;-1.58;70.49;100490.34;5009338;28;20124;-62
2024/01/28 02:01:34;;;;;;;20.65;9.20;;;;;;;-1.37;70.78;100518.13;4992451;28;20512;-60
2024/01/28 02:04:00;;;;;;;21.58;10.10;;;;;;;-1.37;70.75;100520.66;4989614;28;20532;-60
2024/01/28 02:06:27;;;;;;;24.23;9.32;;;;;;;-1.54;70.62;100492.16;4990255;28;20042;-60
2024/01/28 02:08:54;;;;;;;27.45;10.23;;;;;;;-1.36;70.65;100524.94;4972797;28;20404;-62
2024/01/28 02:11:22;;;;;;;24.90;9.82;;;;;;;-1.36;70.62;100530.88;4957091;28;20567;-60
2024/01/28 02:13:49;;;;;;;27.25;10.73;;;;;;;-1.49;70.78;100508.44;4956015;28;20557;-60
2024/01/28 02:16:15;;;;;;;26.55;9.70;;;;;;;-1.40;70.61;100531.63;4987796;28;20050;-58
2024/01/28 02:18:41;;;;;;;30.63;10.98;;;;;;;-1.39;70.47;100537.59;4989111;28;20041;-59
2024/01/28 02:21:07;;;;;;;26.92;9.82;;;;;;;-1.38;70.76;100535.09;4989138;28;20507;-62
2024/01/28 02:23:33;;;;;;;27.23;9.48;;;;;;;-1.38;70.57;100540.22;4972922;28;20050;-58
2024/01/28 02:25:59;;;;;;;25.38;9.82;;;;;;;-1.35;70.72;100541.97;4972369;28;20049;-60
2024/01/28 02:28:24;;;;;;;27.70;10.27;;;;;;;-1.35;70.62;100541.97;4956405;28;20481;-60
2024/01/28 02:30:51;;;;;;;32.10;11.00;;;;;;;-1.35;70.73;100545.38;4993907;28;20037;-59
2024/01/28 02:33:17;;;;;;;29.52;11.20;;;;;;;-1.34;70.77;100551.34;4974481;28;20072;-58
2024/01/28 02:35:42;;;;;;;28.88;10.88;;;;;;;-1.39;70.52;100552.91;4991493;28;20486;-58
2024/01/28 02:38:08;;;;;;;23.77;9.68;;;;;;;-1.35;70.67;100552.16;5007666;28;20489;-58
2024/01/28 02:40:34;;;;;;;28.00;9.90;;;;;;;-1.35;70.61;100563.22;5007224;28;20551;-60
2024/01/28 02:43:03;;;;;;;23.27;9.82;;;;;;;-1.34;70.62;100564.09;5008924;28;20046;-59
2024/01/28 02:45:30;;;;;;;27.52;10.02;;;;;;;-1.57;70.54;100532.84;5007506;28;20092;-60
2024/01/28 02:47:56;;;;;;;26.85;11.23;;;;;;;-1.35;70.27;100563.22;4974826;28;20046;-59
2024/01/28 02:50:22;;;;;;;23.48;9.65;;;;;;;-1.35;70.58;100578.53;4994650;28;20042;-59
2024/01/28 02:52:49;;;;;;;21.92;9.30;;;;;;;-1.37;70.29;100571.69;4987827;28;20423;-58
2024/01/28 02:55:15;;;;;;;24.27;11.23;;;;;;;-1.77;70.42;100508.50;4987868;28;20042;-59
2024/01/28 02:57:40;;;;;;;24.38;10.25;;;;;;;-1.35;70.10;100581.09;4971781;28;20097;-57
2024/01/28 03:00:07;;;;;;;24.05;9.65;;;;;;;-1.50;70.11;100552.59;4971714;28;20068;-58
2024/01/28 03:02:34;;;;;;;23.40;9.48;;;;;;;-1.55;70.10;100543.09;4955870;28;20747;-62
2024/01/28 03:05:00;;;;;;;24.42;10.45;;;;;;;-1.38;70.19;100577.59;4998493;28;20386;-59
2024/01/28 03:07:26;;;;;;;24.80;10.15;;;;;;;-1.79;70.32;100515.25;4993268;28;20052;-58
2024/01/28 03:09:52;;;;;;;25.40;9.63;;;;;;;-1.35;70.02;100596.38;4955628;28;20038;-58
2024/01/28 03:12:18;;;;;;;21.27;8.20;;;;;;;-1.42;70.33;100579.19;4983347;28;20092;-58
2024/01/28 03:14:45;;;;;;;24.25;9.27;;;;;;;-1.66;70.34;100542.81;4974554;28;20100;-60
2024/01/28 03:17:11;;;;;;;27.88;9.75;;;;;;;-1.37;70.32;100589.53;4974599;28;20461;-60
2024/01/28 03:19:37;;;;;;;21.25;9.93;;;;;;;-1.38;70.31;100593.75;4976626;28;20038;-59
2024/01/28 03:22:03;;;;;;;24.88;10.00;;;;;;;-1.37;70.40;100594.63;4984694;28;20434;-61
2024/01/28 03:24:29;;;;;;;24.27;9.85;;;;;;;-1.37;70.27;100592.94;4973885;28;20115;-60
2024/01/28 03:26:55;;;;;;;29.80;11.35;;;;;;;-1.34;70.20;100587.91;4974817;28;20141;-60
2024/01/28 03:29:21;;;;;;;23.15;9.57;;;;;;;-1.29;70.29;100590.59;5006874;28;20201;-61
2024/01/28 03:31:47;;;;;;;29.30;10.63;;;;;;;-1.31;70.52;100587.16;4995024;28;20038;-61
2024/01/28 03:34:13;;;;;;;23.73;9.82;;;;;;;-1.35;70.42;100585.31;4955064;28;20034;-62
2024/01/28 03:36:39;;;;;;;24.13;9.25;;;;;;;-1.30;70.15;100599.94;4957565;28;20518;-59
2024/01/28 03:39:06;;;;;;;21.95;8.75;;;;;;;-1.33;70.35;100592.19;4997724;28;20037;-58
2024/01/28 03:41:32;;;;;;;28.55;10.07;;;;;;;-1.31;70.29;100594.81;4973488;28;20069;-60
2024/01/28 03:43:58;;;;;;;21.52;9.77;;;;;;;-1.30;70.09;100599.94;4986821;28;20124;-60
2024/01/28 03:46:24;;;;;;;24.60;9.27;;;;;;;-1.34;70.34;100597.25;4987095;28;20089;-58
2024/01/28 03:48:50;;;;;;;18.38;7.43;;;;;;;-1.31;70.18;100610.13;4986667;28;20536;-60
2024/01/28 03:51:16;;;;;;;25.17;9.20;;;;;;;-1.33;70.19;100614.28;4986637;28;20046;-59
2024/01/28 03:53:42;;;;;;;20.17;7.97;;;;;;;-1.33;70.12;100619.38;4970772;28;20041;-63
2024/01/28 03:56:09;;;;;;;23.90;8.82;;;;;;;-1.54;70.24;100586.50;4939165;28;20042;-60
2024/01/28 03:58:35;;;;;;;18.50;8.77;;;;;;;-1.54;70.01;100583.94;4988476;28;20042;-60
2024/01/28 04:01:03;;;;;;;22.60;9.65;;;;;;;-1.33;70.39;100620.25;4938795;28;20046;-62
2024/01/28 04:03:29;;;;;;;22.15;9.63;;;;;;;-1.33;70.30;100619.38;4988174;28;20100;-58
2024/01/28 04:05:55;;;;;;;26.17;9.98;;;;;;;-1.32;70.18;100628.78;4985188;28;20450;-59
2024/01/28 04:08:21;;;;;;;24.15;10.82;;;;;;;-1.32;70.61;100632.19;4986689;28;20050;-57
2024/01/28 04:10:47;;;;;;;21.45;10.15;;;;;;;-1.32;70.16;100631.34;4961248;28;20510;-60
2024/01/28 04:13:13;;;;;;;26.05;11.40;;;;;;;-1.34;70.59;100636.38;5005249;28;20049;-60
2024/01/28 04:15:38;;;;;;;22.17;9.15;;;;;;;-1.41;70.41;100628.50;4972624;28;20057;-58
2024/01/28 04:18:05;;;;;;;30.27;10.85;;;;;;;-1.33;70.57;100640.66;4990889;28;20048;-59
2024/01/28 04:20:31;;;;;;;22.52;8.50;;;;;;;-1.32;70.40;100639.84;5005607;28;20144;-60
2024/01/28 04:22:57;;;;;;;21.27;8.82;;;;;;;-1.35;70.29;100643.97;4991265;28;20034;-60
2024/01/28 04:25:22;;;;;;;19.95;7.95;;;;;;;-1.36;70.56;100645.66;4970199;28;20052;-60
2024/01/28 04:27:48;;;;;;;21.08;9.68;;;;;;;-1.57;70.16;100611.88;4969640;28;20046;-59
2024/01/28 04:30:16;;;;;;;21.15;9.68;;;;;;;-1.55;70.36;100614.50;4972033;28;20506;-59
2024/01/28 04:32:44;;;;;;;22.10;8.88;;;;;;;-1.33;70.49;100647.44;4965997;28;20120;-57
2024/01/28 04:35:15;;;;;;;22.08;9.32;;;;;;;-1.39;70.41;100645.59;4973010;28;20049;-57
2024/01/28 04:37:42;;;;;;;17.02;7.72;;;;;;;-1.34;69.95;100650.81;4996987;28;20506;-52
2024/01/28 04:40:08;;;;;;;17.02;8.05;;;;;;;-1.36;70.29;100652.47;4969988;28;20541;-59
2024/01/28 04:42:34;;;;;;;22.15;8.27;;;;;;;-1.34;70.50;100655.91;4986117;28;20815;-57
2024/01/28 04:45:00;;;;;;;17.17;8.02;;;;;;;-1.35;70.45;100657.59;4987146;28;20108;-58
2024/01/28 04:47:26;;;;;;;26.30;9.20;;;;;;;-1.34;70.41;100658.47;4985708;28;20054;-59
2024/01/28 04:49:52;;;;;;;20.58;8.40;;;;;;;-1.35;70.34;100657.59;5005212;28;20181;-57
2024/01/28 04:52:18;;;;;;;22.50;8.75;;;;;;;-1.53;70.18;100628.16;5006310;28;20034;-60
2024/01/28 04:54:44;;;;;;;20.85;8.45;;;;;;;-1.34;70.09;100661.00;4988820;28;20037;-59
2024/01/28 04:57:10;;;;;;;21.85;8.70;;;;;;;-1.35;70.11;100662.69;4988104;28;20128;-59
2024/01/28 04:59:36;;;;;;;24.77;9.23;;;;;;;-1.35;70.31;100660.16;5004895;28;20042;-58
2024/01/28 05:02:05;;;;;;;23.15;8.77;;;;;;;-1.34;70.16;100663.56;5004827;28;20068;-58
2024/01/28 05:04:31;;;;;;;20.70;9.23;;;;;;;-1.34;70.29;100661.88;5002137;28;20057;-60
2024/01/28 05:06:59;;;;;;;20.77;8.73;;;;;;;-1.51;70.17;100631.59;4999050;28;20057;-61
2024/01/28 05:09:26;;;;;;;24.40;8.40;;;;;;;-1.34;70.15;100667.00;4979369;28;20131;-60
2024/01/28 05:11:52;;;;;;;20.88;8.13;;;;;;;-1.34;70.08;100666.13;4992538;28;20073;-60
2024/01/28 05:14:20;;;;;;;21.63;8.20;;;;;;;-1.33;70.10;100673.81;4978370;28;20069;-59
2024/01/28 05:16:47;;;;;;;21.20;8.55;;;;;;;-1.32;70.32;100680.66;4979173;28;20124;-57
2024/01/28 05:19:13;;;;;;;21.10;8.32;;;;;;;-1.34;70.15;100679.75;4961539;28;20038;-61
2024/01/28 05:21:39;;;;;;;21.52;9.05;;;;;;;-1.32;70.42;100679.78;4978563;28;20041;-60
2024/01/28 05:24:06;;;;;;;23.35;8.88;;;;;;;-1.33;70.51;100689.13;4993443;28;20061;-59
2024/01/28 05:26:32;;;;;;;21.88;8.55;;;;;;;-1.33;70.11;100696.78;4950212;28;20050;-62
2024/01/28 05:29:04;;;;;;;21.23;8.85;;;;;;;-1.46;70.04;100673.41;4976773;28;20038;-62
2024/01/28 05:31:30;;;;;;;26.38;9.40;;;;;;;-1.31;70.10;100702.78;4977829;28;20045;-60
2024/01/28 05:33:56;;;;;;;22.65;9.95;;;;;;;-1.31;70.08;100695.13;4993358;28;20601;-61
2024/01/28 05:36:22;;;;;;;19.15;8.52;;;;;;;-1.30;70.19;100690.88;4998963;28;20078;-62
2024/01/28 05:38:47;;;;;;;21.60;9.35;;;;;;;-1.30;70.12;100698.53;4993422;28;20588;-61
2024/01/28 05:41:14;;;;;;;25.27;10.35;;;;;;;-1.33;69.95;100689.13;4974575;28;20057;-62
2024/01/28 05:43:40;;;;;;;23.25;9.57;;;;;;;-1.53;70.06;100662.19;4995726;28;20104;-61
2024/01/28 05:46:06;;;;;;;20.60;8.95;;;;;;;-1.30;70.17;100704.50;4993113;28;20073;-61
2024/01/28 05:48:35;;;;;;;23.40;9.63;;;;;;;-1.28;70.18;100709.66;4969791;28;20509;-62
2024/01/28 05:51:02;;;;;;;20.48;9.43;;;;;;;-1.48;69.98;100681.03;5004486;28;20034;-61
2024/01/28 05:53:28;;;;;;;22.88;9.93;;;;;;;-1.72;70.03;100634.38;4997902;28;20081;-61
2024/01/28 05:55:54;;;;;;;24.25;10.73;;;;;;;-1.25;70.14;100716.53;4991805;28;20054;-61
2024/01/28 05:58:21;;;;;;;26.05;10.93;;;;;;;-1.43;69.91;100679.47;4963106;28;20735;-61
2024/01/28 06:00:47;;;;;;;24.02;10.05;;;;;;;-1.23;70.08;100714.91;4995752;28;20053;-62
2024/01/28 06:03:14;;;;;;;25.95;10.23;;;;;;;-1.22;69.95;100721.75;4952660;28;20038;-61
2024/01/28 06:05:41;;;;;;;21.90;9.35;;;;;;;-1.17;69.91;100715.09;5002524;28;20045;-64
2024/01/28 06:08:08;;;;;;;27.45;10.80;;;;;;;-1.16;69.88;100716.81;5003382;28;20132;-62
2024/01/28 06:10:34;;;;;;;21.45;10.00;;;;;;;-1.15;69.92;100721.09;5004376;28;20050;-62
2024/01/28 06:13:00;;;;;;;26.88;10.40;;;;;;;-1.16;69.78;100716.81;5000985;28;20043;-61
2024/01/28 06:15:27;;;;;;;20.55;9.15;;;;;;;-1.13;69.93;100722.88;4971133;28;20104;-63
2024/01/28 06:17:53;;;;;;;21.08;9.65;;;;;;;-1.12;69.85;100726.28;4986619;28;20056;-62
2024/01/28 06:20:20;;;;;;;24.73;9.55;;;;;;;-1.14;69.68;100726.22;4976047;28;20042;-63
2024/01/28 06:22:46;;;;;;;22.58;9.07;;;;;;;-1.35;69.96;100690.75;4987191;28;20049;-57
2024/01/28 06:25:13;;;;;;;26.08;9.93;;;;;;;-1.14;69.69;100723.69;4989847;28;20521;-61
2024/01/28 06:27:39;;;;;;;26.00;10.93;;;;;;;-1.07;69.72;100737.50;4957829;28;20061;-60
2024/01/28 06:30:05;;;;;;;22.70;10.82;;;;;;;-1.09;69.57;100740.00;4974347;28;20100;-61
2024/01/28 06:32:33;;;;;;;24.98;11.00;;;;;;;-1.29;69.33;100705.38;4954965;28;20532;-62
2024/01/28 06:35:00;;;;;;;21.95;8.88;;;;;;;-1.13;69.50;100730.53;4989289;28;20049;-62
2024/01/28 06:37:27;;;;;;;24.55;9.52;;;;;;;-1.19;69.54;100724.38;4979884;28;20041;-62
2024/01/28 06:39:53;;;;;;;24.25;10.55;;;;;;;-1.29;69.10;100710.47;4975214;28;20073;-63
2024/01/28 06:42:20;;;;;;;23.60;10.13;;;;;;;-1.04;69.26;100751.19;4987228;28;20074;-61
2024/01/28 06:44:47;;;;;;;25.60;10.80;;;;;;;-1.03;69.25;100762.28;4988298;28;20084;-62
2024/01/28 06:47:13;;;;;;;20.58;9.00;;;;;;;-1.00;69.34;100765.81;4972530;28;20034;-64
2024/01/28 06:49:39;;;;;;;21.80;9.70;;;;;;;-1.02;68.95;100762.31;4987800;28;20108;-65
2024/01/28 06:52:05;;;;;;;25.23;10.23;;;;;;;-1.17;69.37;100722.75;4987477;28;20430;-65
2024/01/28 06:54:31;;;;;;;23.30;9.18;;;;;;;-0.98;69.19;100768.38;4988169;28;20046;-65
2024/01/28 06:56:57;;;;;;;23.20;9.48;;;;;;;-1.18;69.03;100723.56;4956128;28;20066;-62
2024/01/28 06:59:23;;;;;;;22.38;9.63;;;;;;;-0.92;68.97;100766.00;4987828;28;20050;-63
2024/01/28 07:01:50;;;;;;;18.50;9.40;;;;;;;-1.12;68.85;100729.72;4980983;28;20065;-58
2024/01/28 07:04:16;;;;;;;30.85;10.15;;;;;;;-0.89;68.75;100773.78;5002025;28;20124;-65
2024/01/28 07:06:43;;;;;;;22.25;9.25;;;;;;;-0.96;68.95;100759.97;4987124;28;20092;-66
2024/01/28 07:09:09;;;;;;;22.27;9.23;;;;;;;-0.85;68.60;100775.59;4971372;28;20056;-66
2024/01/28 07:11:35;;;;;;;23.15;10.75;;;;;;;-0.81;68.56;100773.97;4973527;28;20407;-67
2024/01/28 07:14:01;;;;;;;21.88;9.25;;;;;;;-0.95;68.32;100743.84;4955549;28;20490;-69
2024/01/28 07:16:28;;;;;;;27.33;9.73;;;;;;;-0.74;68.55;100779.31;4987518;28;20046;-65
2024/01/28 07:18:53;;;;;;;21.48;9.13;;;;;;;-0.93;68.76;100733.63;4987445;28;20045;-65
2024/01/28 07:21:20;;;;;;;17.48;7.95;;;;;;;-0.92;68.58;100727.72;4984277;28;20073;-65
2024/01/28 07:23:46;;;;;;;21.10;7.60;;;;;;;-0.64;68.22;100771.09;4970993;28;20124;-65
2024/01/28 07:26:12;;;;;;;19.05;8.75;;;;;;;-0.65;68.35;100765.94;4989306;28;20073;-63
2024/01/28 07:28:38;;;;;;;17.77;7.97;;;;;;;-0.81;68.30;100754.41;4980952;28;20528;-71
2024/01/28 07:31:06;;;;;;;21.02;8.65;;;;;;;-0.60;67.94;100784.78;5000034;28;20092;-56
2024/01/28 07:33:33;;;;;;;18.95;8.65;;;;;;;-0.59;67.89;100789.97;4945737;28;20204;-59
2024/01/28 07:35:59;;;;;;;17.77;7.88;;;;;;;-0.59;67.57;100789.97;4990536;28;20152;-65
2024/01/28 07:38:26;;;;;;;13.73;7.07;;;;;;;-0.56;67.80;100794.25;4984921;28;20042;-70
2024/01/28 07:40:52;;;;;;;20.30;8.27;;;;;;;-0.60;67.55;100790.78;5000308;28;20038;-72
2024/01/28 07:43:19;;;;;;;15.32;7.78;;;;;;;-0.60;67.65;100805.22;4958154;28;20042;-71
2024/01/28 07:45:45;;;;;;;21.98;8.77;;;;;;;-0.67;67.61;100793.09;4996759;28;20076;-73
2024/01/28 07:48:11;;;;;;;17.63;8.05;;;;;;;-0.62;67.56;100811.97;4971014;28;20049;-69
2024/01/28 07:50:38;;;;;;;18.90;8.30;;;;;;;-0.62;67.74;100815.38;4995222;28;20041;-68
2024/01/28 07:53:04;;;;;;;19.77;8.30;;;;;;;-0.61;67.94;100816.25;4996918;28;20061;-72
2024/01/28 07:55:30;;;;;;;21.35;9.40;;;;;;;-0.61;67.69;100812.03;4995332;28;20048;-68
2024/01/28 07:57:56;;;;;;;17.35;7.25;;;;;;;-0.57;67.78;100818.94;4982317;28;20041;-68
2024/01/28 08:00:22;;;;;;;19.60;8.32;;;;;;;-0.56;67.84;100817.25;4992124;28;20069;-68
2024/01/28 08:02:48;;;;;;;19.67;8.48;;;;;;;-0.55;67.58;100819.00;4977503;28;20034;-70
2024/01/28 08:05:14;;;;;;;18.38;8.10;;;;;;;-0.54;67.38;100823.28;4991610;28;20850;-53
2024/01/28 08:07:40;;;;;;;19.83;8.18;;;;;;;-0.51;67.47;100825.91;4978479;28;20186;-69
2024/01/28 08:10:07;;;;;;;25.48;8.48;;;;;;;-0.50;67.54;100825.97;5000668;28;20069;-70
2024/01/28 08:12:34;;;;;;;23.40;10.13;;;;;;;-0.43;67.17;100827.88;4998470;28;20112;-64
2024/01/28 08:15:00;;;;;;;18.80;8.45;;;;;;;-0.42;67.21;100823.63;5001267;28;20092;-70
2024/01/28 08:17:26;;;;;;;19.02;8.32;;;;;;;-0.41;67.07;100825.34;4990755;28;20112;-63
2024/01/28 08:19:52;;;;;;;16.60;8.07;;;;;;;-0.40;67.38;100816.00;4987533;28;20042;-62
2024/01/28 08:22:19;;;;;;;21.77;8.45;;;;;;;-0.41;67.43;100815.13;4970072;28;20046;-63
2024/01/28 08:24:45;;;;;;;21.73;7.88;;;;;;;-0.36;67.25;100816.13;4987607;28;20553;-64
2024/01/28 08:27:11;;;;;;;23.27;8.55;;;;;;;-0.34;66.89;100819.59;4986969;28;20541;-64
2024/01/28 08:29:38;;;;;;;19.70;8.60;;;;;;;-0.29;67.20;100818.03;4998481;28;20041;-64
2024/01/28 08:32:05;;;;;;;24.30;9.18;;;;;;;-0.26;67.14;100825.75;4969652;28;20034;-64
2024/01/28 08:34:34;;;;;;;25.05;10.02;;;;;;;-0.51;66.91;100787.59;4985926;28;20053;-63
2024/01/28 08:37:03;;;;;;;20.83;9.52;;;;;;;-0.50;66.98;100792.75;4992022;28;20046;-63
2024/01/28 08:39:29;;;;;;;20.88;8.95;;;;;;;-0.27;66.92;100825.75;4968972;28;20145;-63
2024/01/28 08:41:55;;;;;;;21.25;8.20;;;;;;;-0.32;66.72;100830.72;4994120;28;20116;-62
2024/01/28 08:44:22;;;;;;;17.27;7.85;;;;;;;-0.30;66.77;100836.72;4986702;28;20088;-61
2024/01/28 08:46:48;;;;;;;20.27;8.45;;;;;;;-0.30;66.86;100838.41;4962236;28;20064;-64
2024/01/28 08:49:16;;;;;;;19.60;8.40;;;;;;;-0.57;66.71;100801.06;4985481;28;20137;-61
2024/01/28 08:51:42;;;;;;;19.83;9.18;;;;;;;-0.29;66.55;100833.34;4986844;28;20038;-62
2024/01/28 08:54:08;;;;;;;18.83;8.52;;;;;;;-0.28;66.94;100839.34;4985641;28;20034;-61
2024/01/28 08:56:34;;;;;;;19.60;8.38;;;;;;;-0.24;66.45;100836.91;4985894;28;20751;-63
2024/01/28 08:59:01;;;;;;;20.70;8.60;;;;;;;-0.23;66.65;100837.78;4969745;28;20038;-61
2024/01/28 09:01:27;;;;;;;24.23;8.63;;;;;;;-0.18;66.62;100838.75;4969588;28;20053;-63
2024/01/28 09:03:53;;;;;;;22.23;8.82;;;;;;;-0.17;66.76;100843.94;4971406;28;20116;-63
2024/01/28 09:06:19;;;;;;;19.50;8.20;;;;;;;-0.17;66.67;100851.59;4988571;28;20050;-63
2024/01/28 09:08:45;;;;;;;19.80;8.10;;;;;;;-0.16;66.28;100850.75;4989688;28;20144;-63
2024/01/28 09:11:12;;;;;;;16.65;7.40;;;;;;;-0.15;66.37;100854.16;4987049;28;20038;-63
2024/01/28 09:13:37;;;;;;;15.85;7.22;;;;;;;-0.17;66.02;100848.16;4969579;28;20034;-64
2024/01/28 09:16:04;;;;;;;18.38;9.02;;;;;;;-0.16;66.08;100855.84;4969312;28;20057;-62
2024/01/28 09:18:30;;;;;;;22.77;8.98;;;;;;;-0.20;66.26;100858.28;4969019;28;20042;-63
2024/01/28 09:20:56;;;;;;;18.95;8.93;;;;;;;-0.25;66.27;100867.53;4979762;28;20065;-63
2024/01/28 09:23:22;;;;;;;22.15;8.45;;;;;;;-0.25;66.00;100867.53;5004523;28;20048;-63
2024/01/28 09:25:48;;;;;;;20.48;8.48;;;;;;;-0.25;66.26;100865.84;5006248;28;20037;-62
2024/01/28 09:28:14;;;;;;;16.35;7.10;;;;;;;-0.20;66.14;100860.84;5005779;28;20100;-62
2024/01/28 09:30:43;;;;;;;16.13;7.75;;;;;;;-0.34;65.89;100834.94;4996960;28;20045;-63
2024/01/28 09:33:10;;;;;;;16.83;7.15;;;;;;;-0.14;66.08;100859.34;5005875;28;20080;-64
2024/01/28 09:35:39;;;;;;;15.82;7.18;;;;;;;-0.11;65.61;100862.00;5004546;28;20096;-63
2024/01/28 09:38:07;;;;;;;19.73;8.48;;;;;;;-0.02;65.63;100861.38;4988459;28;20038;-63
2024/01/28 09:40:34;;;;;;;19.13;8.50;;;;;;;-0.08;65.41;100836.50;4988970;28;20042;-63
2024/01/28 09:43:17;;;;;;;15.93;7.43;;;;;;;-0.18;65.60;100820.88;5006311;28;20140;-63
2024/01/28 09:45:43;;;;;;;15.20;6.57;;;;;;;-0.02;65.57;100853.69;5004753;28;20540;-64
2024/01/28 09:48:11;;;;;;;13.23;6.75;;;;;;;-0.05;65.31;100851.03;5004059;28;20695;-62
2024/01/28 09:50:39;;;;;;;15.43;6.95;;;;;;;0.00;65.27;100858.00;4987598;28;20041;-61
2024/01/28 09:53:05;;;;;;;19.95;8.40;;;;;;;0.04;64.75;100858.97;5005852;28;20050;-60
2024/01/28 09:55:31;;;;;;;17.17;7.15;;;;;;;-0.13;64.69;100824.41;4991842;28;20049;-62
2024/01/28 09:57:57;;;;;;;17.73;7.47;;;;;;;0.08;64.37;100857.34;5008495;28;20053;-67
2024/01/28 10:00:23;;;;;;;16.48;7.40;;;;;;;0.16;64.78;100856.72;4958683;28;20056;-65
2024/01/28 10:02:49;;;;;;;16.77;7.60;;;;;;;0.16;64.44;100845.66;4995812;28;20042;-63
2024/01/28 10:05:15;;;;;;;17.42;7.13;;;;;;;0.24;64.73;100859.50;4982357;28;20042;-66
2024/01/28 10:07:50;;;;;;;19.55;8.63;;;;;;;0.12;64.31;100839.56;4973009;28;20046;-63
2024/01/28 10:10:17;;;;;;;16.30;7.18;;;;;;;0.12;64.25;100837.03;4980503;28;20053;-63
2024/01/28 10:12:49;;;;;;;18.38;7.68;;;;;;;0.27;64.26;100857.00;4988728;28;20132;-63
2024/01/28 10:15:20;;;;;;;20.85;8.02;;;;;;;0.26;64.35;100863.81;4996784;28;20155;-64
2024/01/28 10:17:48;;;;;;;19.13;8.07;;;;;;;0.28;64.30;100866.41;4974873;28;20045;-64
2024/01/28 10:20:25;;;;;;;20.23;8.82;;;;;;;0.28;64.23;100867.28;4997900;28;20613;-63
2024/01/28 10:22:52;;;;;;;18.35;7.88;;;;;;;0.29;64.47;100861.34;4993611;28;20136;-63
2024/01/28 10:25:22;;;;;;;16.90;7.63;;;;;;;0.33;64.24;100858.03;4957202;28;20042;-62
2024/01/28 10:27:49;;;;;;;16.02;7.30;;;;;;;0.12;64.19;100828.47;5002362;28;20046;-65
2024/01/28 10:30:16;;;;;;;16.77;7.70;;;;;;;0.37;63.96;100861.53;4976005;28;20046;-62
2024/01/28 10:32:43;;;;;;;15.85;7.28;;;;;;;0.38;64.17;100869.25;4992549;28;20088;-64
2024/01/28 10:35:11;;;;;;;16.30;7.95;;;;;;;0.39;63.97;100862.44;4981256;28;20177;-63
2024/01/28 10:37:37;;;;;;;18.58;7.90;;;;;;;0.36;63.91;100870.91;4977271;28;20038;-62
2024/01/28 10:40:07;;;;;;;18.50;8.05;;;;;;;0.42;63.91;100865.94;4989588;28;20058;-63
2024/01/28 10:42:40;;;;;;;18.35;8.25;;;;;;;0.22;63.45;100815.09;5002801;28;20050;-64
2024/01/28 10:45:13;;;;;;;20.10;8.27;;;;;;;0.51;63.85;100851.66;4996590;28;20502;-63
2024/01/28 10:47:54;;;;;;;15.07;6.93;;;;;;;0.55;63.40;100856.00;4988661;28;20073;-64
2024/01/28 10:50:34;;;;;;;19.00;8.88;;;;;;;0.40;63.44;100830.94;4995864;28;20502;-64
2024/01/28 10:53:01;;;;;;;17.92;7.47;;;;;;;0.65;63.70;100865.66;4970758;28;20038;-63
2024/01/28 10:55:28;;;;;;;16.77;7.40;;;;;;;0.66;63.32;100864.81;4997465;28;20131;-63
2024/01/28 10:57:54;;;;;;;15.73;7.32;;;;;;;0.70;63.27;100869.19;4966419;28;20069;-63
2024/01/28 11:00:22;;;;;;;19.23;8.07;;;;;;;0.72;63.21;100868.41;4970042;28;20085;-65
2024/01/28 11:02:49;;;;;;;18.63;8.30;;;;;;;0.76;63.20;100872.75;4972123;28;20399;-64
2024/01/28 11:05:20;;;;;;;18.55;7.72;;;;;;;0.53;63.60;100832.06;5003663;28;20136;-63
2024/01/28 11:07:49;;;;;;;15.30;6.88;;;;;;;0.78;63.17;100870.25;4995100;28;20057;-64
2024/01/28 11:10:16;;;;;;;;;;;;;;;0.81;62.80;100883.97;4998539;28;20046;-63
2024/01/28 11:12:43;;;;;;;15.63;7.40;;;;;;;0.77;62.68;100883.88;4970629;28;19917;-64
2024/01/28 11:15:14;;;;;;;20.80;8.07;;;;;;;0.79;62.96;100880.50;4996208;28;20049;-63